Terminal Aerodrome Forecast
Issued by NWS

Home | Current Version | Previous Version | Graphics & Text | Print | Product List | Glossary On
Versions: 1 2 3 4 5 6 7 8 9 10 11 12 13 14 15 16
000
FTUS43 KICT 221730 AAE
TAFSLN
TAF AMD
KSLN 221730Z 2218/2318 18016G24KT P6SM FEW250
     FM230100 16009KT P6SM SCT250
     FM230300 10008KT P6SM SCT200
     FM230500 01011KT P6SM BKN140
     FM230600 01011KT P6SM VCSH BKN090
     FM231200 36011KT P6SM BKN120=

USA.gov is the U.S. government's official web portal to all federal, state and local government web resources and services.